sensor_id;sensor_type;location;lat;lon;timestamp;pressure;altitude;pressure_sealevel;temperature;humidity
6500;BME280;3283;52.330;9.772;2023-03-01T08:08:26;102244.91;;;-0.73;100.00
6500;BME280;3283;52.330;9.772;2023-03-01T08:10:51;102238.47;;;-0.50;99.19
6500;BME280;3283;52.330;9.772;2023-03-01T08:13:17;102244.53;;;-0.20;96.44
6500;BME280;3283;52.330;9.772;2023-03-01T08:15:48;102240.38;;;-0.02;93.58
6500;BME280;3283;52.330;9.772;2023-03-01T08:18:14;102251.34;;;0.09;91.52
6500;BME280;3283;52.330;9.772;2023-03-01T08:20:39;102250.84;;;0.31;90.34
6500;BME280;3283;52.330;9.772;2023-03-01T08:23:04;102252.06;;;0.38;89.21
6500;BME280;3283;52.330;9.772;2023-03-01T08:25:30;102242.59;;;0.38;88.57
6500;BME280;3283;52.330;9.772;2023-03-01T09:36:46;102211.84;;;3.33;72.35
6500;BME280;3283;52.330;9.772;2023-03-01T09:39:12;102205.75;;;3.53;70.35
6500;BME280;3283;52.330;9.772;2023-03-01T09:42:04;102208.25;;;3.72;69.31
6500;BME280;3283;52.330;9.772;2023-03-01T09:44:38;102206.25;;;3.88;69.63
6500;BME280;3283;52.330;9.772;2023-03-01T09:47:18;102205.91;;;4.01;68.32
6500;BME280;3283;52.330;9.772;2023-03-01T09:49:54;102205.56;;;4.36;68.30
6500;BME280;3283;52.330;9.772;2023-03-01T09:52:34;102200.34;;;4.36;67.34
6500;BME280;3283;52.330;9.772;2023-03-01T09:55:01;102199.31;;;4.31;66.50
6500;BME280;3283;52.330;9.772;2023-03-01T09:57:41;102200.78;;;4.25;66.57
6500;BME280;3283;52.330;9.772;2023-03-01T10:00:26;102210.94;;;4.17;66.35
6500;BME280;3283;52.330;9.772;2023-03-01T10:10:52;102207.66;;;4.69;64.70
6500;BME280;3283;52.330;9.772;2023-03-01T10:16:28;102212.91;;;4.47;64.71
6500;BME280;3283;52.330;9.772;2023-03-01T10:19:00;102210.34;;;4.24;65.51
6500;BME280;3283;52.330;9.772;2023-03-01T10:21:28;102207.00;;;4.28;65.30
6500;BME280;3283;52.330;9.772;2023-03-01T10:24:08;102210.63;;;4.09;65.27
6500;BME280;3283;52.330;9.772;2023-03-01T18:44:49;101922.97;;;2.86;67.31
6500;BME280;3283;52.330;9.772;2023-03-01T18:47:15;101910.41;;;2.97;66.72
6500;BME280;3283;52.330;9.772;2023-03-01T18:49:40;101911.88;;;3.13;66.43
6500;BME280;3283;52.330;9.772;2023-03-01T18:52:06;101914.66;;;3.17;66.18
6500;BME280;3283;52.330;9.772;2023-03-01T18:54:31;101915.53;;;3.18;66.14
6500;BME280;3283;52.330;9.772;2023-03-01T18:56:57;101920.94;;;3.24;66.16
6500;BME280;3283;52.330;9.772;2023-03-01T18:59:22;101918.28;;;3.22;66.49
6500;BME280;3283;52.330;9.772;2023-03-01T19:01:47;101910.50;;;3.22;66.26
6500;BME280;3283;52.330;9.772;2023-03-01T19:04:13;101916.44;;;3.18;66.35
6500;BME280;3283;52.330;9.772;2023-03-01T19:06:38;101909.50;;;3.19;66.47
6500;BME280;3283;52.330;9.772;2023-03-01T19:09:05;101919.63;;;3.11;66.86
6500;BME280;3283;52.330;9.772;2023-03-01T19:11:31;101914.28;;;3.08;67.21
6500;BME280;3283;52.330;9.772;2023-03-01T19:13:58;101917.53;;;3.02;67.25
6500;BME280;3283;52.330;9.772;2023-03-01T19:16:25;101914.81;;;2.99;67.59
6500;BME280;3283;52.330;9.772;2023-03-01T19:19:02;101910.28;;;2.94;67.32
6500;BME280;3283;52.330;9.772;2023-03-01T19:21:29;101914.34;;;2.87;68.57
6500;BME280;3283;52.330;9.772;2023-03-01T19:23:58;101918.31;;;2.78;68.79
